sensor_id;sensor_type;location;lat;lon;timestamp;temperature;humidity
67769;DHT22;54569;52.018;5.584;2023-03-11T00:00:40;1.60;90.20
67769;DHT22;54569;52.018;5.584;2023-03-11T00:03:07;1.60;90.10
67769;DHT22;54569;52.018;5.584;2023-03-11T00:05:36;1.70;90.00
67769;DHT22;54569;52.018;5.584;2023-03-11T00:08:03;1.70;89.50
67769;DHT22;54569;52.018;5.584;2023-03-11T00:10:40;1.70;89.80
67769;DHT22;54569;52.018;5.584;2023-03-11T00:13:07;1.70;88.90
67769;DHT22;54569;52.018;5.584;2023-03-11T00:15:34;1.70;88.80
67769;DHT22;54569;52.018;5.584;2023-03-11T00:18:01;1.70;88.60
67769;DHT22;54569;52.018;5.584;2023-03-11T00:20:29;1.60;88.60
67769;DHT22;54569;52.018;5.584;2023-03-11T00:22:56;1.60;88.60
67769;DHT22;54569;52.018;5.584;2023-03-11T00:25:25;1.60;88.60
67769;DHT22;54569;52.018;5.584;2023-03-11T00:27:50;1.50;88.60
67769;DHT22;54569;52.018;5.584;2023-03-11T00:30:18;1.50;88.70
67769;DHT22;54569;52.018;5.584;2023-03-11T00:32:47;1.50;88.80
67769;DHT22;54569;52.018;5.584;2023-03-11T00:35:17;1.50;88.80
67769;DHT22;54569;52.018;5.584;2023-03-11T00:37:44;1.50;89.00
67769;DHT22;54569;52.018;5.584;2023-03-11T00:40:13;1.40;88.90
67769;DHT22;54569;52.018;5.584;2023-03-11T00:42:39;1.50;89.00
67769;DHT22;54569;52.018;5.584;2023-03-11T00:45:05;1.50;89.00
67769;DHT22;54569;52.018;5.584;2023-03-11T00:47:31;1.50;89.00
67769;DHT22;54569;52.018;5.584;2023-03-11T00:49:57;1.40;88.80
67769;DHT22;54569;52.018;5.584;2023-03-11T00:52:22;1.40;88.70
67769;DHT22;54569;52.018;5.584;2023-03-11T00:54:48;1.50;88.70
67769;DHT22;54569;52.018;5.584;2023-03-11T00:57:14;1.50;88.60
67769;DHT22;54569;52.018;5.584;2023-03-11T00:59:42;1.50;88.40
67769;DHT22;54569;52.018;5.584;2023-03-11T01:02:07;1.50;88.30
67769;DHT22;54569;52.018;5.584;2023-03-11T01:04:33;1.50;88.20
67769;DHT22;54569;52.018;5.584;2023-03-11T01:06:59;1.40;88.10
67769;DHT22;54569;52.018;5.584;2023-03-11T01:09:25;1.50;88.20
67769;DHT22;54569;52.018;5.584;2023-03-11T01:11:50;1.50;88.10
67769;DHT22;54569;52.018;5.584;2023-03-11T01:14:17;1.50;88.10
67769;DHT22;54569;52.018;5.584;2023-03-11T01:16:43;1.50;88.00
67769;DHT22;54569;52.018;5.584;2023-03-11T01:19:09;1.50;87.80
67769;DHT22;54569;52.018;5.584;2023-03-11T01:21:34;1.50;88.30
67769;DHT22;54569;52.018;5.584;2023-03-11T01:24:00;1.50;87.60
67769;DHT22;54569;52.018;5.584;2023-03-11T01:26:26;1.50;87.60
67769;DHT22;54569;52.018;5.584;2023-03-11T01:28:54;1.60;87.50
67769;DHT22;54569;52.018;5.584;2023-03-11T01:31:20;1.60;87.30
67769;DHT22;54569;52.018;5.584;2023-03-11T01:33:46;1.60;87.20
67769;DHT22;54569;52.018;5.584;2023-03-11T01:36:12;1.60;87.10
67769;DHT22;54569;52.018;5.584;2023-03-11T01:38:37;1.70;87.00
67769;DHT22;54569;52.018;5.584;2023-03-11T01:41:03;1.70;86.80
67769;DHT22;54569;52.018;5.584;2023-03-11T01:43:44;1.70;86.60
67769;DHT22;54569;52.018;5.584;2023-03-11T01:49:21;1.70;86.30
67769;DHT22;54569;52.018;5.584;2023-03-11T01:51:49;1.70;86.30
67769;DHT22;54569;52.018;5.584;2023-03-11T01:54:20;1.70;86.30
67769;DHT22;54569;52.018;5.584;2023-03-11T01:56:47;1.70;86.30
67769;DHT22;54569;52.018;5.584;2023-03-11T01:59:17;1.70;86.10
67769;DHT22;54569;52.018;5.584;2023-03-11T02:02:07;1.80;86.00
67769;DHT22;54569;52.018;5.584;2023-03-11T02:04:35;1.80;85.90
67769;DHT22;54569;52.018;5.584;2023-03-11T02:07:02;1.80;85.80
67769;DHT22;54569;52.018;5.584;2023-03-11T02:09:29;1.80;85.90
67769;DHT22;54569;52.018;5.584;2023-03-11T02:11:56;1.80;85.80
67769;DHT22;54569;52.018;5.584;2023-03-11T02:14:24;1.80;85.80
67769;DHT22;54569;52.018;5.584;2023-03-11T02:16:52;1.80;85.60
67769;DHT22;54569;52.018;5.584;2023-03-11T02:22:02;1.80;85.50
67769;DHT22;54569;52.018;5.584;2023-03-11T02:27:11;1.80;85.50
67769;DHT22;54569;52.018;5.584;2023-03-11T02:29:38;1.80;85.50
67769;DHT22;54569;52.018;5.584;2023-03-11T02:32:07;1.80;85.40
67769;DHT22;54569;52.018;5.584;2023-03-11T02:34:37;1.80;85.20
67769;DHT22;54569;52.018;5.584;2023-03-11T02:37:10;1.90;85.30
67769;DHT22;54569;52.018;5.584;2023-03-11T02:39:41;1.90;85.20
67769;DHT22;54569;52.018;5.584;2023-03-11T02:42:24;1.90;85.10
67769;DHT22;54569;52.018;5.584;2023-03-11T02:45:11;1.90;84.90
67769;DHT22;54569;52.018;5.584;2023-03-11T02:47:38;1.90;84.90
67769;DHT22;54569;52.018;5.584;2023-03-11T02:50:10;1.90;84.80
67769;DHT22;54569;52.018;5.584;2023-03-11T02:52:36;1.90;84.80
67769;DHT22;54569;52.018;5.584;2023-03-11T02:55:03;1.90;84.80
67769;DHT22;54569;52.018;5.584;2023-03-11T02:57:29;1.90;84.80
67769;DHT22;54569;52.018;5.584;2023-03-11T02:59:55;1.90;84.80
67769;DHT22;54569;52.018;5.584;2023-03-11T03:02:21;1.90;84.70
67769;DHT22;54569;52.018;5.584;2023-03-11T03:04:47;1.90;84.70
67769;DHT22;54569;52.018;5.584;2023-03-11T03:07:13;1.90;84.60
67769;DHT22;54569;52.018;5.584;2023-03-11T03:09:39;1.90;84.60
67769;DHT22;54569;52.018;5.584;2023-03-11T03:12:05;1.90;84.60
67769;DHT22;54569;52.018;5.584;2023-03-11T03:14:32;1.90;84.70
67769;DHT22;54569;52.018;5.584;2023-03-11T03:16:58;1.90;84.70
67769;DHT22;54569;52.018;5.584;2023-03-11T03:19:23;1.80;84.60
67769;DHT22;54569;52.018;5.584;2023-03-11T03:21:50;1.80;84.70
67769;DHT22;54569;52.018;5.584;2023-03-11T03:24:15;1.80;84.70
67769;DHT22;54569;52.018;5.584;2023-03-11T03:26:41;1.70;84.80
67769;DHT22;54569;52.018;5.584;2023-03-11T03:29:07;1.70;84.80
67769;DHT22;54569;52.018;5.584;2023-03-11T03:31:32;1.60;84.90
67769;DHT22;54569;52.018;5.584;2023-03-11T03:33:59;1.60;85.10
67769;DHT22;54569;52.018;5.584;2023-03-11T03:36:25;1.50;85.20
67769;DHT22;54569;52.018;5.584;2023-03-11T03:38:56;1.50;85.50
67769;DHT22;54569;52.018;5.584;2023-03-11T03:41:26;1.40;85.50
67769;DHT22;54569;52.018;5.584;2023-03-11T03:43:52;1.30;85.60
67769;DHT22;54569;52.018;5.584;2023-03-11T03:46:20;1.30;85.80
67769;DHT22;54569;52.018;5.584;2023-03-11T03:48:48;1.20;85.80
67769;DHT22;54569;52.018;5.584;2023-03-11T03:51:14;1.20;86.00
67769;DHT22;54569;52.018;5.584;2023-03-11T03:53:49;1.10;86.10
67769;DHT22;54569;52.018;5.584;2023-03-11T03:56:16;1.10;86.80
67769;DHT22;54569;52.018;5.584;2023-03-11T03:58:43;1.00;86.40
67769;DHT22;54569;52.018;5.584;2023-03-11T04:01:10;1.00;86.50
67769;DHT22;54569;52.018;5.584;2023-03-11T04:03:37;1.00;86.70
67769;DHT22;54569;52.018;5.584;2023-03-11T04:06:20;0.90;86.70
67769;DHT22;54569;52.018;5.584;2023-03-11T04:08:51;0.90;86.80
67769;DHT22;54569;52.018;5.584;2023-03-11T04:11:18;0.90;86.90
67769;DHT22;54569;52.018;5.584;2023-03-11T04:13:44;0.90;86.90
67769;DHT22;54569;52.018;5.584;2023-03-11T04:16:23;0.80;86.80
67769;DHT22;54569;52.018;5.584;2023-03-11T04:18:51;0.90;86.80
67769;DHT22;54569;52.018;5.584;2023-03-11T04:21:18;0.90;86.70
67769;DHT22;54569;52.018;5.584;2023-03-11T04:23:45;0.90;86.60
67769;DHT22;54569;52.018;5.584;2023-03-11T04:26:13;0.90;86.50
67769;DHT22;54569;52.018;5.584;2023-03-11T04:28:39;0.90;86.30
67769;DHT22;54569;52.018;5.584;2023-03-11T04:31:05;0.90;86.10
67769;DHT22;54569;52.018;5.584;2023-03-11T04:33:32;0.90;86.70
67769;DHT22;54569;52.018;5.584;2023-03-11T04:35:58;0.90;86.00
67769;DHT22;54569;52.018;5.584;2023-03-11T04:38:24;0.90;86.00
67769;DHT22;54569;52.018;5.584;2023-03-11T04:40:50;0.80;86.00
67769;DHT22;54569;52.018;5.584;2023-03-11T04:43:17;0.90;86.00
67769;DHT22;54569;52.018;5.584;2023-03-11T04:45:44;0.80;86.00
67769;DHT22;54569;52.018;5.584;2023-03-11T04:48:10;0.80;85.90
67769;DHT22;54569;52.018;5.584;2023-03-11T04:50:38;0.80;85.90
67769;DHT22;54569;52.018;5.584;2023-03-11T04:53:03;0.80;85.80
67769;DHT22;54569;52.018;5.584;2023-03-11T04:55:29;0.80;85.80
67769;DHT22;54569;52.018;5.584;2023-03-11T04:57:55;0.80;85.80
67769;DHT22;54569;52.018;5.584;2023-03-11T05:00:21;0.70;85.80
67769;DHT22;54569;52.018;5.584;2023-03-11T05:02:54;0.70;85.90
67769;DHT22;54569;52.018;5.584;2023-03-11T05:05:20;0.70;86.00
67769;DHT22;54569;52.018;5.584;2023-03-11T05:07:46;0.70;86.00
67769;DHT22;54569;52.018;5.584;2023-03-11T05:10:13;0.70;86.00
67769;DHT22;54569;52.018;5.584;2023-03-11T05:12:39;0.70;86.50
67769;DHT22;54569;52.018;5.584;2023-03-11T05:15:06;0.70;85.80
67769;DHT22;54569;52.018;5.584;2023-03-11T05:17:32;0.70;85.70
67769;DHT22;54569;52.018;5.584;2023-03-11T05:19:58;0.60;85.60
67769;DHT22;54569;52.018;5.584;2023-03-11T05:22:29;0.60;85.50
67769;DHT22;54569;52.018;5.584;2023-03-11T05:24:55;0.60;85.60
67769;DHT22;54569;52.018;5.584;2023-03-11T05:27:21;0.60;85.60
67769;DHT22;54569;52.018;5.584;2023-03-11T05:29:51;0.60;85.50
67769;DHT22;54569;52.018;5.584;2023-03-11T05:32:18;0.60;85.50
67769;DHT22;54569;52.018;5.584;2023-03-11T05:34:45;0.60;85.50
67769;DHT22;54569;52.018;5.584;2023-03-11T05:37:13;0.50;85.50
67769;DHT22;54569;52.018;5.584;2023-03-11T05:39:39;0.50;85.60
67769;DHT22;54569;52.018;5.584;2023-03-11T05:42:06;0.50;86.20
67769;DHT22;54569;52.018;5.584;2023-03-11T05:44:33;0.40;85.60
67769;DHT22;54569;52.018;5.584;2023-03-11T05:47:00;0.40;85.60
67769;DHT22;54569;52.018;5.584;2023-03-11T05:49:26;0.40;85.70
67769;DHT22;54569;52.018;5.584;2023-03-11T05:51:53;0.40;85.80
67769;DHT22;54569;52.018;5.584;2023-03-11T05:54:19;0.30;85.80
67769;DHT22;54569;52.018;5.584;2023-03-11T05:56:48;0.40;86.00
67769;DHT22;54569;52.018;5.584;2023-03-11T05:59:15;0.40;86.00
67769;DHT22;54569;52.018;5.584;2023-03-11T06:01:42;0.30;86.00
67769;DHT22;54569;52.018;5.584;2023-03-11T06:04:08;0.30;86.00
67769;DHT22;54569;52.018;5.584;2023-03-11T06:06:34;0.30;86.00
67769;DHT22;54569;52.018;5.584;2023-03-11T06:09:00;0.30;86.00
67769;DHT22;54569;52.018;5.584;2023-03-11T06:11:28;0.30;86.10
67769;DHT22;54569;52.018;5.584;2023-03-11T06:13:55;0.30;86.00
67769;DHT22;54569;52.018;5.584;2023-03-11T06:16:24;0.30;85.90
67769;DHT22;54569;52.018;5.584;2023-03-11T06:18:51;0.30;85.80
67769;DHT22;54569;52.018;5.584;2023-03-11T06:21:20;0.30;85.80
67769;DHT22;54569;52.018;5.584;2023-03-11T06:23:46;0.40;85.80
67769;DHT22;54569;52.018;5.584;2023-03-11T06:26:14;0.30;85.80
67769;DHT22;54569;52.018;5.584;2023-03-11T06:28:43;0.30;85.80
67769;DHT22;54569;52.018;5.584;2023-03-11T06:31:15;0.40;85.80
67769;DHT22;54569;52.018;5.584;2023-03-11T06:33:41;0.40;85.70
67769;DHT22;54569;52.018;5.584;2023-03-11T06:36:07;0.50;85.70
67769;DHT22;54569;52.018;5.584;2023-03-11T06:38:33;0.50;85.70
67769;DHT22;54569;52.018;5.584;2023-03-11T06:41:00;0.50;85.60
67769;DHT22;54569;52.018;5.584;2023-03-11T06:43:27;0.60;85.60
67769;DHT22;54569;52.018;5.584;2023-03-11T06:45:53;0.60;85.40
67769;DHT22;54569;52.018;5.584;2023-03-11T06:48:20;0.70;85.30
67769;DHT22;54569;52.018;5.584;2023-03-11T06:50:56;0.70;85.10
67769;DHT22;54569;52.018;5.584;2023-03-11T06:53:24;0.80;84.90
67769;DHT22;54569;52.018;5.584;2023-03-11T06:56:00;0.90;84.70
67769;DHT22;54569;52.018;5.584;2023-03-11T06:58:29;1.00;84.50
67769;DHT22;54569;52.018;5.584;2023-03-11T07:01:03;1.20;84.30
67769;DHT22;54569;52.018;5.584;2023-03-11T07:03:30;1.50;84.10
67769;DHT22;54569;52.018;5.584;2023-03-11T07:05:56;1.90;83.60
67769;DHT22;54569;52.018;5.584;2023-03-11T07:08:23;2.50;82.40
67769;DHT22;54569;52.018;5.584;2023-03-11T07:11:01;2.70;80.60
67769;DHT22;54569;52.018;5.584;2023-03-11T07:13:28;2.70;79.90
67769;DHT22;54569;52.018;5.584;2023-03-11T07:16:02;2.80;79.90
67769;DHT22;54569;52.018;5.584;2023-03-11T07:18:28;4.00;81.10
67769;DHT22;54569;52.018;5.584;2023-03-11T07:20:55;6.00;77.90
67769;DHT22;54569;52.018;5.584;2023-03-11T07:23:21;7.50;73.10
67769;DHT22;54569;52.018;5.584;2023-03-11T07:25:46;9.30;69.00
67769;DHT22;54569;52.018;5.584;2023-03-11T07:28:12;11.20;74.20
67769;DHT22;54569;52.018;5.584;2023-03-11T07:30:39;12.80;61.80
67769;DHT22;54569;52.018;5.584;2023-03-11T07:33:05;14.10;59.00
67769;DHT22;54569;52.018;5.584;2023-03-11T07:35:30;15.60;64.40
67769;DHT22;54569;52.018;5.584;2023-03-11T07:37:56;16.70;58.40
67769;DHT22;54569;52.018;5.584;2023-03-11T07:40:22;17.80;53.40
67769;DHT22;54569;52.018;5.584;2023-03-11T07:42:48;19.00;52.00
67769;DHT22;54569;52.018;5.584;2023-03-11T07:45:14;19.80;51.10
67769;DHT22;54569;52.018;5.584;2023-03-11T07:47:40;20.40;50.90
67769;DHT22;54569;52.018;5.584;2023-03-11T07:50:06;21.00;52.60
67769;DHT22;54569;52.018;5.584;2023-03-11T07:52:31;21.80;50.10
67769;DHT22;54569;52.018;5.584;2023-03-11T07:54:58;22.60;49.50
67769;DHT22;54569;52.018;5.584;2023-03-11T07:57:24;23.40;49.00
67769;DHT22;54569;52.018;5.584;2023-03-11T07:59:50;24.10;48.50
67769;DHT22;54569;52.018;5.584;2023-03-11T08:02:15;24.60;48.50
67769;DHT22;54569;52.018;5.584;2023-03-11T08:04:41;25.00;48.30
67769;DHT22;54569;52.018;5.584;2023-03-11T08:07:07;25.60;48.20
67769;DHT22;54569;52.018;5.584;2023-03-11T08:09:34;26.10;47.80
67769;DHT22;54569;52.018;5.584;2023-03-11T08:11:59;26.50;47.30
67769;DHT22;54569;52.018;5.584;2023-03-11T08:14:25;26.90;47.40
67769;DHT22;54569;52.018;5.584;2023-03-11T08:16:51;27.30;47.20
67769;DHT22;54569;52.018;5.584;2023-03-11T08:19:16;27.70;46.90
67769;DHT22;54569;52.018;5.584;2023-03-11T08:21:42;28.00;46.20
67769;DHT22;54569;52.018;5.584;2023-03-11T08:24:12;28.40;46.20
67769;DHT22;54569;52.018;5.584;2023-03-11T08:26:39;28.90;44.10
67769;DHT22;54569;52.018;5.584;2023-03-11T08:29:05;29.10;45.20
67769;DHT22;54569;52.018;5.584;2023-03-11T08:31:32;29.60;44.60
67769;DHT22;54569;52.018;5.584;2023-03-11T08:34:02;29.80;43.70
67769;DHT22;54569;52.018;5.584;2023-03-11T08:38:54;30.00;43.20
67769;DHT22;54569;52.018;5.584;2023-03-11T08:41:19;30.20;43.30
67769;DHT22;54569;52.018;5.584;2023-03-11T08:43:45;30.40;43.50
67769;DHT22;54569;52.018;5.584;2023-03-11T08:46:33;30.50;43.10
67769;DHT22;54569;52.018;5.584;2023-03-11T08:48:59;30.70;38.50
67769;DHT22;54569;52.018;5.584;2023-03-11T08:51:26;30.90;42.80
67769;DHT22;54569;52.018;5.584;2023-03-11T08:53:52;31.40;42.40
67769;DHT22;54569;52.018;5.584;2023-03-11T08:56:18;31.70;41.90
67769;DHT22;54569;52.018;5.584;2023-03-11T08:58:44;31.90;41.40
67769;DHT22;54569;52.018;5.584;2023-03-11T09:01:11;31.70;41.10
67769;DHT22;54569;52.018;5.584;2023-03-11T09:03:38;31.80;41.00
67769;DHT22;54569;52.018;5.584;2023-03-11T09:06:07;31.50;41.20
67769;DHT22;54569;52.018;5.584;2023-03-11T09:08:33;31.30;41.60
67769;DHT22;54569;52.018;5.584;2023-03-11T09:11:00;31.20;41.20
67769;DHT22;54569;52.018;5.584;2023-03-11T09:13:26;31.40;40.80
67769;DHT22;54569;52.018;5.584;2023-03-11T09:15:52;31.60;40.90
67769;DHT22;54569;52.018;5.584;2023-03-11T09:18:18;31.70;40.10
67769;DHT22;54569;52.018;5.584;2023-03-11T09:20:45;32.20;40.20
67769;DHT22;54569;52.018;5.584;2023-03-11T09:23:13;32.80;39.30
67769;DHT22;54569;52.018;5.584;2023-03-11T09:25:39;32.30;39.10
67769;DHT22;54569;52.018;5.584;2023-03-11T09:28:05;31.30;40.50
67769;DHT22;54569;52.018;5.584;2023-03-11T09:30:31;30.10;42.20
67769;DHT22;54569;52.018;5.584;2023-03-11T09:32:57;29.10;43.10
67769;DHT22;54569;52.018;5.584;2023-03-11T09:35:23;29.00;43.00
67769;DHT22;54569;52.018;5.584;2023-03-11T09:37:49;29.00;42.70
67769;DHT22;54569;52.018;5.584;2023-03-11T09:40:19;28.80;42.80
67769;DHT22;54569;52.018;5.584;2023-03-11T09:43:09;28.10;42.70
67769;DHT22;54569;52.018;5.584;2023-03-11T09:45:49;27.30;35.40
67769;DHT22;54569;52.018;5.584;2023-03-11T09:48:48;26.40;42.60
67769;DHT22;54569;52.018;5.584;2023-03-11T09:51:27;25.60;37.40
67769;DHT22;54569;52.018;5.584;2023-03-11T09:54:02;24.80;41.80
67769;DHT22;54569;52.018;5.584;2023-03-11T09:56:27;24.70;45.50
67769;DHT22;54569;52.018;5.584;2023-03-11T09:59:02;25.20;34.70
67769;DHT22;54569;52.018;5.584;2023-03-11T10:01:32;26.30;40.30
67769;DHT22;54569;52.018;5.584;2023-03-11T10:04:18;28.00;40.70
67769;DHT22;54569;52.018;5.584;2023-03-11T10:06:47;29.80;34.90
67769;DHT22;54569;52.018;5.584;2023-03-11T10:18:04;31.10;31.20
67769;DHT22;54569;52.018;5.584;2023-03-11T10:21:03;31.30;36.10
67769;DHT22;54569;52.018;5.584;2023-03-11T10:24:25;31.30;30.40
67769;DHT22;54569;52.018;5.584;2023-03-11T10:26:49;30.70;31.40
67769;DHT22;54569;52.018;5.584;2023-03-11T10:29:25;29.70;35.60
67769;DHT22;54569;52.018;5.584;2023-03-11T10:34:38;27.90;39.80
67769;DHT22;54569;52.018;5.584;2023-03-11T10:37:11;26.70;35.30
67769;DHT22;54569;52.018;5.584;2023-03-11T10:39:39;26.80;38.90
67769;DHT22;54569;52.018;5.584;2023-03-11T10:42:13;26.90;39.60
67769;DHT22;54569;52.018;5.584;2023-03-11T10:44:42;26.10;38.80
67769;DHT22;54569;52.018;5.584;2023-03-11T10:47:22;24.80;41.70
67769;DHT22;54569;52.018;5.584;2023-03-11T10:49:50;23.80;36.00
67769;DHT22;54569;52.018;5.584;2023-03-11T10:52:17;23.00;43.50
67769;DHT22;54569;52.018;5.584;2023-03-11T10:54:46;22.50;43.60
67769;DHT22;54569;52.018;5.584;2023-03-11T10:57:25;21.60;43.70
67769;DHT22;54569;52.018;5.584;2023-03-11T10:59:54;21.20;42.00
67769;DHT22;54569;52.018;5.584;2023-03-11T11:02:32;20.70;44.70
67769;DHT22;54569;52.018;5.584;2023-03-11T11:05:28;20.30;44.50
67769;DHT22;54569;52.018;5.584;2023-03-11T11:08:08;21.50;37.80
67769;DHT22;54569;52.018;5.584;2023-03-11T11:10:36;23.70;37.30
67769;DHT22;54569;52.018;5.584;2023-03-11T11:15:50;27.50;35.30
67769;DHT22;54569;52.018;5.584;2023-03-11T11:18:28;28.50;33.70
67769;DHT22;54569;52.018;5.584;2023-03-11T11:21:02;28.60;33.70
67769;DHT22;54569;52.018;5.584;2023-03-11T11:23:47;29.30;32.70
67769;DHT22;54569;52.018;5.584;2023-03-11T11:26:19;30.00;30.10
67769;DHT22;54569;52.018;5.584;2023-03-11T11:28:45;30.80;32.50
67769;DHT22;54569;52.018;5.584;2023-03-11T11:31:25;31.30;44.60
67769;DHT22;54569;52.018;5.584;2023-03-11T11:33:53;31.40;29.50
67769;DHT22;54569;52.018;5.584;2023-03-11T11:36:30;31.80;32.40
67769;DHT22;54569;52.018;5.584;2023-03-11T11:38:58;31.60;32.70
67769;DHT22;54569;52.018;5.584;2023-03-11T11:41:26;31.60;32.90
67769;DHT22;54569;52.018;5.584;2023-03-11T11:43:55;32.00;32.00
67769;DHT22;54569;52.018;5.584;2023-03-11T11:46:43;32.10;32.40
67769;DHT22;54569;52.018;5.584;2023-03-11T11:49:20;32.10;29.50
67769;DHT22;54569;52.018;5.584;2023-03-11T11:52:11;32.00;30.80
67769;DHT22;54569;52.018;5.584;2023-03-11T11:54:49;32.00;28.10
67769;DHT22;54569;52.018;5.584;2023-03-11T11:57:18;31.30;33.10
67769;DHT22;54569;52.018;5.584;2023-03-11T11:59:45;31.20;33.50
67769;DHT22;54569;52.018;5.584;2023-03-11T12:10:44;30.60;30.10
67769;DHT22;54569;52.018;5.584;2023-03-11T12:27:17;28.70;28.40
67769;DHT22;54569;52.018;5.584;2023-03-11T12:29:45;28.00;32.10
67769;DHT22;54569;52.018;5.584;2023-03-11T12:32:41;27.80;32.40
67769;DHT22;54569;52.018;5.584;2023-03-11T12:35:31;27.10;28.30
67769;DHT22;54569;52.018;5.584;2023-03-11T12:38:20;25.20;29.70
67769;DHT22;54569;52.018;5.584;2023-03-11T12:41:00;23.00;30.80
67769;DHT22;54569;52.018;5.584;2023-03-11T12:46:08;19.90;39.00
67769;DHT22;54569;52.018;5.584;2023-03-11T12:48:48;19.20;40.10
67769;DHT22;54569;52.018;5.584;2023-03-11T12:54:39;17.80;37.70
67769;DHT22;54569;52.018;5.584;2023-03-11T13:00:03;17.00;37.40
67769;DHT22;54569;52.018;5.584;2023-03-11T13:03:07;16.60;40.90
67769;DHT22;54569;52.018;5.584;2023-03-11T13:08:24;16.00;41.20
67769;DHT22;54569;52.018;5.584;2023-03-11T13:10:54;15.80;34.10
67769;DHT22;54569;52.018;5.584;2023-03-11T13:13:41;15.70;41.00
67769;DHT22;54569;52.018;5.584;2023-03-11T13:18:46;15.10;39.80
67769;DHT22;54569;52.018;5.584;2023-03-11T13:32:50;13.80;40.50
67769;DHT22;54569;52.018;5.584;2023-03-11T13:40:42;13.00;38.40
67769;DHT22;54569;52.018;5.584;2023-03-11T13:43:34;12.80;40.90
67769;DHT22;54569;52.018;5.584;2023-03-11T13:46:18;12.60;36.80
67769;DHT22;54569;52.018;5.584;2023-03-11T13:48:47;12.60;40.30
67769;DHT22;54569;52.018;5.584;2023-03-11T13:51:41;12.50;40.30
67769;DHT22;54569;52.018;5.584;2023-03-11T13:57:01;12.50;38.40
67769;DHT22;54569;52.018;5.584;2023-03-11T13:59:34;12.40;38.70
67769;DHT22;54569;52.018;5.584;2023-03-11T14:04:31;12.30;40.40
67769;DHT22;54569;52.018;5.584;2023-03-11T14:06:58;12.30;39.90
67769;DHT22;54569;52.018;5.584;2023-03-11T14:09:27;12.20;39.80
67769;DHT22;54569;52.018;5.584;2023-03-11T14:11:54;12.10;39.70
67769;DHT22;54569;52.018;5.584;2023-03-11T14:17:03;11.90;39.80
67769;DHT22;54569;52.018;5.584;2023-03-11T14:19:30;11.70;40.00
67769;DHT22;54569;52.018;5.584;2023-03-11T14:21:55;11.50;40.30
67769;DHT22;54569;52.018;5.584;2023-03-11T14:24:27;11.50;40.70
67769;DHT22;54569;52.018;5.584;2023-03-11T14:26:54;11.50;40.60
67769;DHT22;54569;52.018;5.584;2023-03-11T14:29:33;11.50;40.70
67769;DHT22;54569;52.018;5.584;2023-03-11T14:32:24;11.40;39.90
67769;DHT22;54569;52.018;5.584;2023-03-11T14:34:45;11.40;40.20
67769;DHT22;54569;52.018;5.584;2023-03-11T14:37:30;11.50;39.60
67769;DHT22;54569;52.018;5.584;2023-03-11T14:39:57;11.60;38.80
67769;DHT22;54569;52.018;5.584;2023-03-11T14:42:25;11.50;39.80
67769;DHT22;54569;52.018;5.584;2023-03-11T14:50:10;11.20;39.30
67769;DHT22;54569;52.018;5.584;2023-03-11T14:52:42;10.90;39.10
67769;DHT22;54569;52.018;5.584;2023-03-11T14:55:20;10.90;40.00
67769;DHT22;54569;52.018;5.584;2023-03-11T14:57:50;10.90;39.40
67769;DHT22;54569;52.018;5.584;2023-03-11T15:00:27;10.90;40.00
67769;DHT22;54569;52.018;5.584;2023-03-11T15:03:08;10.80;39.70
67769;DHT22;54569;52.018;5.584;2023-03-11T15:05:51;10.70;39.80
67769;DHT22;54569;52.018;5.584;2023-03-11T15:08:22;10.80;39.70
67769;DHT22;54569;52.018;5.584;2023-03-11T15:11:06;10.80;40.20
67769;DHT22;54569;52.018;5.584;2023-03-11T15:13:32;10.70;38.70
67769;DHT22;54569;52.018;5.584;2023-03-11T15:16:01;10.70;39.70
67769;DHT22;54569;52.018;5.584;2023-03-11T15:18:32;10.70;39.40
67769;DHT22;54569;52.018;5.584;2023-03-11T15:23:28;10.60;39.80
67769;DHT22;54569;52.018;5.584;2023-03-11T15:25:54;10.50;40.30
67769;DHT22;54569;52.018;5.584;2023-03-11T15:31:12;10.20;39.60
67769;DHT22;54569;52.018;5.584;2023-03-11T15:33:37;10.00;39.60
67769;DHT22;54569;52.018;5.584;2023-03-11T15:36:04;9.90;40.10
67769;DHT22;54569;52.018;5.584;2023-03-11T15:38:32;9.80;40.70
67769;DHT22;54569;52.018;5.584;2023-03-11T15:41:00;9.70;41.00
67769;DHT22;54569;52.018;5.584;2023-03-11T15:43:31;9.70;41.10
67769;DHT22;54569;52.018;5.584;2023-03-11T15:46:00;9.70;41.20
67769;DHT22;54569;52.018;5.584;2023-03-11T15:48:27;9.70;41.30
67769;DHT22;54569;52.018;5.584;2023-03-11T15:50:57;9.80;41.20
67769;DHT22;54569;52.018;5.584;2023-03-11T15:53:24;9.80;41.30
67769;DHT22;54569;52.018;5.584;2023-03-11T15:55:57;9.80;41.20
67769;DHT22;54569;52.018;5.584;2023-03-11T15:58:23;9.70;40.50
67769;DHT22;54569;52.018;5.584;2023-03-11T16:00:51;9.60;40.70
67769;DHT22;54569;52.018;5.584;2023-03-11T16:03:18;9.50;40.70
67769;DHT22;54569;52.018;5.584;2023-03-11T16:05:44;9.40;40.80
67769;DHT22;54569;52.018;5.584;2023-03-11T16:08:10;9.40;41.10
67769;DHT22;54569;52.018;5.584;2023-03-11T16:10:36;9.30;41.30
67769;DHT22;54569;52.018;5.584;2023-03-11T16:13:02;9.20;41.50
67769;DHT22;54569;52.018;5.584;2023-03-11T16:15:33;9.10;41.30
67769;DHT22;54569;52.018;5.584;2023-03-11T16:18:02;9.10;41.40
67769;DHT22;54569;52.018;5.584;2023-03-11T16:20:36;9.00;41.70
67769;DHT22;54569;52.018;5.584;2023-03-11T16:23:03;9.00;41.90
67769;DHT22;54569;52.018;5.584;2023-03-11T16:25:35;8.90;41.70
67769;DHT22;54569;52.018;5.584;2023-03-11T16:28:01;8.90;41.80
67769;DHT22;54569;52.018;5.584;2023-03-11T16:30:29;8.90;41.70
67769;DHT22;54569;52.018;5.584;2023-03-11T16:32:55;8.90;41.80
67769;DHT22;54569;52.018;5.584;2023-03-11T16:35:20;8.80;41.80
67769;DHT22;54569;52.018;5.584;2023-03-11T16:37:47;8.80;41.80
67769;DHT22;54569;52.018;5.584;2023-03-11T16:40:21;8.80;41.90
67769;DHT22;54569;52.018;5.584;2023-03-11T16:42:49;8.70;41.70
67769;DHT22;54569;52.018;5.584;2023-03-11T16:45:16;8.60;42.00
67769;DHT22;54569;52.018;5.584;2023-03-11T16:47:42;8.50;42.40
67769;DHT22;54569;52.018;5.584;2023-03-11T16:50:08;8.40;42.40
67769;DHT22;54569;52.018;5.584;2023-03-11T16:52:34;8.40;42.50
67769;DHT22;54569;52.018;5.584;2023-03-11T16:55:00;8.30;42.70
67769;DHT22;54569;52.018;5.584;2023-03-11T16:57:26;8.30;42.70
67769;DHT22;54569;52.018;5.584;2023-03-11T16:59:51;8.20;42.60
67769;DHT22;54569;52.018;5.584;2023-03-11T17:02:17;8.20;42.50
67769;DHT22;54569;52.018;5.584;2023-03-11T17:04:43;8.10;42.70
67769;DHT22;54569;52.018;5.584;2023-03-11T17:07:09;8.00;42.80
67769;DHT22;54569;52.018;5.584;2023-03-11T17:09:36;7.90;42.90
67769;DHT22;54569;52.018;5.584;2023-03-11T17:12:02;7.90;43.10
67769;DHT22;54569;52.018;5.584;2023-03-11T17:14:28;7.80;43.40
67769;DHT22;54569;52.018;5.584;2023-03-11T18:10:30;6.10;47.20
67769;DHT22;54569;52.018;5.584;2023-03-11T18:21:00;5.80;48.70
67769;DHT22;54569;52.018;5.584;2023-03-11T18:23:25;5.80;54.90
67769;DHT22;54569;52.018;5.584;2023-03-11T18:25:51;5.70;55.70
67769;DHT22;54569;52.018;5.584;2023-03-11T18:38:43;5.30;50.90
67769;DHT22;54569;52.018;5.584;2023-03-11T18:41:10;5.20;50.70
67769;DHT22;54569;52.018;5.584;2023-03-11T18:43:36;5.20;50.80